createdAt,value
2023-04-20T00:00:58.028Z,67468.69
2023-04-20T00:03:26.679Z,67472.28
2023-04-20T00:05:54.362Z,67474.69
2023-04-20T00:08:21.457Z,67449.56
2023-04-20T00:10:48.760Z,67444.47
2023-04-20T00:13:15.865Z,67443.94
2023-04-20T00:15:42.963Z,67450.47
2023-04-20T00:18:10.221Z,67460.47
2023-04-20T00:20:38.560Z,67455.38
2023-04-20T00:23:05.751Z,67444.69
2023-04-20T00:25:33.392Z,67454.25
2023-04-20T00:28:00.656Z,67452.38
2023-04-20T00:30:27.825Z,67457.63
2023-04-20T00:32:54.977Z,67449.38
2023-04-20T00:35:22.170Z,67462.50
2023-04-20T00:37:49.250Z,67445.44
2023-04-20T00:40:16.402Z,67450.13
2023-04-20T00:42:43.463Z,67440.19
2023-04-20T00:45:10.715Z,67447.88
2023-04-20T00:47:38.527Z,67447.88
2023-04-20T00:50:06.837Z,67449.34
2023-04-20T00:52:34.106Z,67441.88
2023-04-20T00:55:02.087Z,67437.38
2023-04-20T00:57:31.129Z,67438.06
2023-04-20T01:00:01.633Z,67447.28
2023-04-20T01:02:28.971Z,67437.16
2023-04-20T01:04:56.614Z,67437.72
2023-04-20T01:07:23.719Z,67436.78
2023-04-20T01:09:50.861Z,67432.84
2023-04-20T01:12:18.115Z,67436.97
2023-04-20T01:14:45.178Z,67434.00
2023-04-20T01:17:13.625Z,67439.75
2023-04-20T01:19:46.187Z,67437.53
2023-04-20T01:22:22.405Z,67428.72
2023-04-20T01:24:49.530Z,67429.84
2023-04-20T01:27:17.208Z,67423.66
2023-04-20T01:29:45.445Z,67437.38
2023-04-20T01:32:13.070Z,67423.28
2023-04-20T01:34:40.844Z,67422.72
2023-04-20T01:37:09.025Z,67411.81
2023-04-20T01:39:37.763Z,67437.53
2023-04-20T01:42:06.137Z,67438.50
2023-04-20T01:44:33.276Z,67450.31
2023-04-20T01:47:00.455Z,67442.22
2023-04-20T01:49:27.704Z,67439.06
2023-04-20T01:51:55.662Z,67427.59
2023-04-20T01:54:22.867Z,67414.84
2023-04-20T01:56:49.940Z,67409.38
2023-04-20T01:59:17.388Z,67400.78
2023-04-20T02:01:44.626Z,67394.16
2023-04-20T02:04:11.823Z,67369.81
2023-04-20T02:06:40.919Z,67364.19
2023-04-20T02:09:10.173Z,67359.84
2023-04-20T02:11:37.351Z,67360.81
2023-04-20T02:14:06.717Z,67357.25
2023-04-20T02:16:35.526Z,67342.81
2023-04-20T02:19:03.048Z,67353.09
2023-04-20T02:21:30.191Z,67354.06
2023-04-20T02:23:57.574Z,67357.81
2023-04-20T02:26:27.366Z,67353.88
2023-04-20T02:28:54.467Z,67349.34
2023-04-20T02:31:21.543Z,67339.81
2023-04-20T02:33:50.681Z,67284.25
2023-04-20T02:36:19.390Z,67327.78
2023-04-20T02:38:46.472Z,67305.81
2023-04-20T02:41:13.551Z,67297.94
2023-04-20T02:43:41.054Z,67293.66
2023-04-20T02:46:09.971Z,67272.88
2023-04-20T02:48:37.254Z,67265.75
2023-04-20T02:51:04.437Z,67252.06
2023-04-20T02:53:41.055Z,67252.97
2023-04-20T02:56:14.429Z,67245.31
2023-04-20T02:58:52.108Z,67251.28
2023-04-20T03:01:32.994Z,67252.63
2023-04-20T03:04:06.596Z,67252.97
2023-04-20T03:06:38.887Z,67241.00
2023-04-20T03:09:08.978Z,67240.03
2023-04-20T03:11:56.403Z,67234.06
2023-04-20T03:14:42.036Z,67234.63
2023-04-20T03:17:09.458Z,67236.09
2023-04-20T03:19:36.848Z,67247.91
2023-04-20T03:22:04.906Z,67247.91
2023-04-20T03:24:33.854Z,67243.84
2023-04-20T03:27:08.013Z,67243.28
2023-04-20T03:29:44.170Z,67256.56
2023-04-20T03:32:11.495Z,67262.19
2023-04-20T03:34:38.676Z,67270.41
2023-04-20T03:37:06.496Z,67269.84
2023-04-20T03:39:33.614Z,67264.84
2023-04-20T03:42:00.787Z,67266.13
2023-04-20T03:44:28.115Z,67261.41
2023-04-20T03:46:55.191Z,67249.81
2023-04-20T03:49:25.056Z,67250.56
2023-04-20T03:51:52.210Z,67241.00
2023-04-20T03:54:19.275Z,67249.81
2023-04-20T03:56:46.615Z,67245.88
2023-04-20T03:59:14.264Z,67244.75
2023-04-20T04:01:44.393Z,67225.28
2023-04-20T04:04:13.691Z,67225.28
2023-04-20T04:06:41.193Z,67217.78
2023-04-20T04:09:09.629Z,67212.50
2023-04-20T04:11:36.903Z,67224.16
2023-04-20T04:14:07.063Z,67227.69
2023-04-20T04:16:36.899Z,67237.25
2023-04-20T04:19:04.157Z,67227.69
2023-04-20T04:21:31.462Z,67232.41
2023-04-20T04:24:05.743Z,67227.75
2023-04-20T04:26:41.371Z,67237.66
2023-04-20T04:29:09.058Z,67246.78
2023-04-20T04:31:36.284Z,67243.63
2023-04-20T04:34:10.742Z,67245.53
2023-04-20T04:36:44.091Z,67241.38
2023-04-20T04:39:13.919Z,67222.47
2023-04-20T04:41:57.401Z,67229.56
2023-04-20T04:44:40.063Z,67231.25
2023-04-20T04:47:09.564Z,67237.25
2023-04-20T04:49:37.129Z,67223.75
2023-04-20T04:52:04.334Z,67202.25
2023-04-20T04:54:31.457Z,67207.09
2023-04-20T04:56:58.806Z,67228.66
2023-04-20T04:59:26.005Z,67220.94
2023-04-20T05:01:53.118Z,67222.63
2023-04-20T05:04:20.666Z,67232.72
2023-04-20T05:06:47.829Z,67228.09
2023-04-20T05:09:21.168Z,67230.47
2023-04-20T05:11:48.214Z,67234.84
2023-04-20T05:14:15.521Z,67248.13
2023-04-20T05:16:42.721Z,67236.53
2023-04-20T05:19:09.910Z,67235.19
2023-04-20T05:21:38.187Z,67240.25
2023-04-20T05:24:06.439Z,67229.22
2023-04-20T05:26:33.629Z,67244.56
2023-04-20T05:29:01.690Z,67252.06
2023-04-20T05:31:29.174Z,67257.47
2023-04-20T05:33:56.280Z,67255.63
2023-04-20T05:36:23.470Z,67259.56
2023-04-20T05:38:50.679Z,67269.50
2023-04-20T05:41:17.868Z,67267.81
2023-04-20T05:43:45.208Z,67267.66
2023-04-20T05:46:12.370Z,67260.84
2023-04-20T05:48:39.539Z,67259.00
2023-04-20T05:51:06.721Z,67274.75
2023-04-20T05:53:33.824Z,67265.91
2023-04-20T05:56:00.888Z,67268.72
2023-04-20T05:58:28.133Z,67278.84
2023-04-20T06:00:55.228Z,67291.78
2023-04-20T06:03:22.849Z,67287.28
2023-04-20T06:05:50.791Z,67280.94
2023-04-20T06:08:19.267Z,67277.34
2023-04-20T06:10:46.724Z,67285.22
2023-04-20T06:13:13.905Z,67288.25
2023-04-20T06:15:41.408Z,67325.38
2023-04-20T06:18:08.632Z,67345.63
2023-04-20T06:20:35.802Z,67356.31
2023-04-20T06:23:02.964Z,67367.94
2023-04-20T06:25:30.214Z,67363.63
2023-04-20T06:27:57.401Z,67382.94
2023-04-20T06:30:24.503Z,67397.91
2023-04-20T06:32:51.756Z,67399.66
2023-04-20T06:35:18.952Z,67379.75
2023-04-20T06:37:46.481Z,67360.25
2023-04-20T06:40:16.128Z,67361.38
2023-04-20T06:42:43.497Z,67400.56
2023-04-20T06:45:11.604Z,67416.91
2023-04-20T06:47:39.125Z,67407.75
2023-04-20T06:50:09.620Z,67424.06
2023-04-20T06:52:38.885Z,67447.50
2023-04-20T06:55:07.032Z,67462.72
2023-04-20T06:57:34.270Z,67463.47
2023-04-20T07:00:01.716Z,67467.75
2023-04-20T07:02:28.897Z,67456.53
2023-04-20T07:05:01.768Z,67463.25
2023-04-20T07:07:28.914Z,67437.16
2023-04-20T07:09:56.007Z,67442.78
2023-04-20T07:12:23.094Z,67443.34
2023-04-20T07:14:50.318Z,67417.47
2023-04-20T07:17:17.591Z,67438.84
2023-04-20T07:19:44.673Z,67442.22
2023-04-20T07:22:11.765Z,67443.94
2023-04-20T07:24:38.836Z,67450.31
2023-04-20T07:27:06.573Z,67449.56
2023-04-20T07:29:34.182Z,67465.88
2023-04-20T07:32:01.424Z,67445.81
2023-04-20T07:34:36.268Z,67462.72
2023-04-20T07:37:03.373Z,67475.09
2023-04-20T07:39:30.804Z,67472.06
2023-04-20T07:41:57.918Z,67458.56
2023-04-20T07:44:24.988Z,67479.81
2023-04-20T07:46:52.029Z,67496.28
2023-04-20T07:49:19.362Z,67479.03
2023-04-20T07:51:46.776Z,67468.13
2023-04-20T07:54:13.834Z,67456.31
2023-04-20T07:56:40.903Z,67472.28
2023-04-20T07:59:08.775Z,67475.09
2023-04-20T08:01:36.852Z,67502.13
2023-04-20T08:04:04.189Z,67499.50
2023-04-20T08:06:31.931Z,67526.16
2023-04-20T08:08:59.058Z,67519.59
2023-04-20T08:11:26.997Z,67536.50
2023-04-20T08:13:55.078Z,67543.06
2023-04-20T08:16:24.071Z,67543.81
2023-04-20T08:18:51.471Z,67546.63
2023-04-20T08:21:18.822Z,67541.00
2023-04-20T08:23:45.912Z,67560.94
2023-04-20T08:26:16.051Z,67586.25
2023-04-20T08:28:44.904Z,67609.00
2023-04-20T08:31:14.182Z,67640.94
2023-04-20T08:33:41.730Z,67662.78
2023-04-20T08:36:08.876Z,67654.13
2023-04-20T08:38:36.328Z,67637.59
2023-04-20T08:41:03.549Z,67640.44
2023-04-20T08:43:31.731Z,67677.59
2023-04-20T08:46:00.364Z,67682.50
2023-04-20T08:48:38.701Z,67709.03
2023-04-20T08:51:06.419Z,67710.16
2023-04-20T08:53:33.875Z,67713.72
2023-04-20T08:56:01.231Z,67705.66
2023-04-20T08:58:32.169Z,67700.94
2023-04-20T09:01:01.072Z,67712.78
2023-04-20T09:03:33.480Z,67720.31
2023-04-20T09:06:00.883Z,67718.63
2023-04-20T09:08:39.343Z,67708.81
2023-04-20T09:11:06.768Z,67699.22
2023-04-20T09:13:33.950Z,67695.50
2023-04-20T09:16:13.684Z,67702.84
2023-04-20T09:18:51.200Z,67725.38
2023-04-20T09:21:18.275Z,67736.88
2023-04-20T09:23:56.528Z,67719.41
2023-04-20T09:26:27.145Z,67736.13
2023-04-20T09:28:54.354Z,67724.09
2023-04-20T09:31:22.953Z,67733.09
2023-04-20T09:34:01.544Z,67736.50
2023-04-20T09:36:39.159Z,67716.78
2023-04-20T09:39:15.569Z,67694.72
2023-04-20T09:41:43.830Z,67711.66
2023-04-20T09:44:12.301Z,67697.75
2023-04-20T09:46:40.723Z,67705.66
2023-04-20T09:49:09.880Z,67694.94
2023-04-20T09:51:45.035Z,67695.50
2023-04-20T09:54:13.605Z,67696.97
2023-04-20T09:56:41.192Z,67684.22
2023-04-20T09:59:08.812Z,67700.38
2023-04-20T10:01:38.192Z,67714.09
2023-04-20T10:04:14.435Z,67705.66
2023-04-20T10:07:03.281Z,67694.34
2023-04-20T10:09:32.358Z,67673.47
2023-04-20T10:12:07.411Z,67636.97
2023-04-20T10:14:35.755Z,67666.72
2023-04-20T10:17:08.986Z,67655.06
2023-04-20T10:19:44.248Z,67665.75
2023-04-20T10:22:29.220Z,67668.78
2023-04-20T10:24:56.447Z,67656.00
2023-04-20T10:27:24.158Z,67664.63
2023-04-20T10:29:51.688Z,67664.63
2023-04-20T10:32:27.237Z,67659.94
2023-04-20T10:35:20.930Z,67674.44
2023-04-20T10:37:50.947Z,67658.84
2023-04-20T10:40:27.156Z,67663.91
2023-04-20T10:42:54.359Z,67661.09
2023-04-20T10:45:22.059Z,67670.66
2023-04-20T10:47:49.901Z,67674.06
2023-04-20T10:50:18.875Z,67677.78
2023-04-20T10:52:46.222Z,67684.22
2023-04-20T10:55:21.821Z,67678.38
2023-04-20T10:57:54.205Z,67684.97
2023-04-20T11:00:28.731Z,67694.16
2023-04-20T11:02:59.795Z,67704.53
2023-04-20T11:05:27.699Z,67705.09
2023-04-20T11:07:56.668Z,67704.53
2023-04-20T11:10:36.732Z,67718.44
2023-04-20T11:13:03.865Z,67732.91
2023-04-20T11:15:35.266Z,67731.41
2023-04-20T11:18:10.253Z,67719.19
2023-04-20T11:20:38.315Z,67708.13
2023-04-20T11:23:06.054Z,67710.53
2023-04-20T11:25:34.026Z,67699.06
2023-04-20T11:28:08.908Z,67693.81
2023-04-20T11:30:42.770Z,67702.84
2023-04-20T11:33:11.001Z,67700.78
2023-04-20T11:35:40.037Z,67723.91
2023-04-20T11:38:08.380Z,67729.91
2023-04-20T11:40:36.481Z,67747.97
2023-04-20T11:43:04.837Z,67744.03
2023-04-20T11:45:36.893Z,67756.44
2023-04-20T11:48:05.792Z,67759.44
2023-04-20T11:50:33.004Z,67771.47
2023-04-20T11:53:00.301Z,67786.91
2023-04-20T11:55:27.422Z,67798.75
2023-04-20T11:57:54.962Z,67792.19
2023-04-20T12:00:22.427Z,67795.94
2023-04-20T12:02:49.744Z,67781.84
2023-04-20T12:05:17.043Z,67799.91
2023-04-20T12:07:44.211Z,67798.22
2023-04-20T12:10:11.439Z,67818.34
2023-04-20T12:12:38.560Z,67811.19
2023-04-20T12:15:06.698Z,67825.69
2023-04-20T12:17:33.975Z,67836.41
2023-04-20T12:20:01.170Z,67847.94
2023-04-20T12:22:28.490Z,67856.03
2023-04-20T12:24:55.570Z,67889.75
2023-04-20T12:27:22.728Z,67908.38
2023-04-20T12:29:49.919Z,67900.28
2023-04-20T12:32:17.067Z,67880.69
2023-04-20T12:34:44.221Z,67864.28
2023-04-20T12:37:11.308Z,67892.16
2023-04-20T12:39:38.472Z,67894.81
2023-04-20T12:42:05.658Z,67912.31
2023-04-20T12:44:33.028Z,67911.19
2023-04-20T12:47:00.228Z,67907.81
2023-04-20T12:49:27.370Z,67902.16
2023-04-20T12:51:54.479Z,67908.94
2023-04-20T12:54:21.621Z,67908.94
2023-04-20T12:56:49.036Z,67914.22
2023-04-20T12:59:16.131Z,67911.97
2023-04-20T13:01:43.302Z,67928.16
2023-04-20T13:04:11.172Z,67938.34
2023-04-20T13:06:38.648Z,67945.47
2023-04-20T13:09:07.112Z,67951.13
2023-04-20T13:11:34.289Z,67953.22
2023-04-20T13:14:01.514Z,67970.56
2023-04-20T13:16:29.483Z,67956.63
2023-04-20T13:18:56.821Z,67987.72
2023-04-20T13:21:23.926Z,68005.97
2023-04-20T13:23:51.317Z,68019.38
2023-04-20T13:26:18.442Z,68046.13
2023-04-20T13:28:45.653Z,68052.72
2023-04-20T13:31:12.821Z,68068.94
2023-04-20T13:33:39.979Z,68051.41
2023-04-20T13:36:08.759Z,68046.69
2023-04-20T13:38:36.018Z,68049.91
2023-04-20T13:41:03.218Z,68052.91
2023-04-20T13:43:30.314Z,68064.78
2023-04-20T13:45:58.101Z,68057.06
2023-04-20T13:48:25.278Z,68072.34
2023-04-20T13:50:56.169Z,68088.75
2023-04-20T13:53:23.608Z,68079.50
2023-04-20T13:55:50.936Z,68080.25
2023-04-20T13:58:18.078Z,68093.47
2023-04-20T14:00:46.289Z,68125.56
2023-04-20T14:03:14.308Z,68149.69
2023-04-20T14:05:42.257Z,68180.47
2023-04-20T14:08:09.756Z,68198.00
2023-04-20T14:10:40.546Z,68205.94
2023-04-20T14:13:10.019Z,68198.78
2023-04-20T14:15:40.016Z,68186.34
2023-04-20T14:18:07.735Z,68159.72
2023-04-20T14:20:37.873Z,68183.50
2023-04-20T14:23:09.263Z,68189.16
2023-04-20T14:25:36.775Z,68211.03
2023-04-20T14:28:07.049Z,68266.94
2023-04-20T14:30:34.193Z,68325.47
2023-04-20T14:33:03.207Z,68340.81
2023-04-20T14:35:34.118Z,68407.69
2023-04-20T14:38:01.551Z,68394.09
2023-04-20T14:40:29.179Z,68458.97
2023-04-20T14:42:57.100Z,68451.94
2023-04-20T14:45:24.174Z,68502.50
2023-04-20T14:47:57.710Z,68506.63
2023-04-20T14:50:31.559Z,68516.13
2023-04-20T14:52:58.636Z,68489.41
2023-04-20T14:55:26.207Z,68477.50
2023-04-20T14:57:58.923Z,68495.25
2023-04-20T15:00:36.032Z,68450.44
2023-04-20T15:03:03.970Z,68439.84
2023-04-20T15:05:33.088Z,68464.63
2023-04-20T15:08:04.331Z,68500.97
2023-04-20T15:10:38.347Z,68499.22
2023-04-20T15:13:09.732Z,68528.03
2023-04-20T15:15:48.246Z,68548.81
2023-04-20T15:18:20.905Z,68547.84
2023-04-20T15:20:48.382Z,68585.56
2023-04-20T15:23:19.763Z,68542.16
2023-04-20T15:25:50.436Z,68551.31
2023-04-20T15:28:23.022Z,68546.75
2023-04-20T15:30:55.288Z,68557.72
2023-04-20T15:33:22.576Z,68561.72
2023-04-20T15:35:50.490Z,68579.31
2023-04-20T15:38:25.381Z,68602.00
2023-04-20T15:40:53.903Z,68615.97
2023-04-20T15:43:21.293Z,68650.13
2023-04-20T15:45:51.476Z,68661.50
2023-04-20T15:48:19.501Z,68641.00
2023-04-20T15:50:51.626Z,68646.31
2023-04-20T15:53:34.290Z,68651.81
2023-04-20T15:56:01.647Z,68641.78
2023-04-20T15:58:33.565Z,68632.88
2023-04-20T16:01:01.053Z,68629.09
2023-04-20T16:03:29.718Z,68592.19
2023-04-20T16:05:57.306Z,68574.19
2023-04-20T16:08:27.722Z,68564.16
2023-04-20T16:10:57.655Z,68542.41
2023-04-20T16:13:32.676Z,68516.66
2023-04-20T16:16:02.636Z,68498.13
2023-04-20T16:18:32.903Z,68464.06
2023-04-20T16:21:00.221Z,68447.41
2023-04-20T16:23:31.497Z,68450.44
2023-04-20T16:26:05.423Z,68445.72
2023-04-20T16:28:35.881Z,68448.56
2023-04-20T16:31:03.169Z,68415.09
2023-04-20T16:33:32.141Z,68433.03
2023-04-20T16:36:00.457Z,68437.00
2023-04-20T16:38:27.757Z,68411.88
2023-04-20T16:40:55.017Z,68405.25
2023-04-20T16:43:22.510Z,68394.69
2023-04-20T16:45:49.908Z,68395.81
2023-04-20T16:48:17.109Z,68412.63
2023-04-20T16:50:44.320Z,68395.25
2023-04-20T16:53:11.418Z,68385.97
2023-04-20T16:55:38.551Z,68386.53
2023-04-20T16:58:05.698Z,68383.34
2023-04-20T17:00:33.214Z,68374.84
2023-04-20T17:03:03.782Z,68382.78
2023-04-20T17:05:31.225Z,68395.06
2023-04-20T17:07:58.428Z,68390.16
2023-04-20T17:10:25.674Z,68373.13
2023-04-20T17:12:53.035Z,68368.59
2023-04-20T17:15:20.818Z,68368.22
2023-04-20T17:17:50.818Z,68373.69
2023-04-20T17:20:18.267Z,68370.88
2023-04-20T17:22:46.711Z,68363.66
2023-04-20T17:25:14.762Z,68355.19
2023-04-20T17:27:43.658Z,68355.56
2023-04-20T17:30:17.395Z,68346.47
2023-04-20T17:32:44.523Z,68346.69
2023-04-20T17:35:11.845Z,68331.94
2023-04-20T17:37:39.187Z,68325.31
2023-04-20T17:40:07.684Z,68324.94
2023-04-20T17:42:34.841Z,68313.41
2023-04-20T17:45:01.977Z,68316.78
2023-04-20T17:47:31.599Z,68320.19
2023-04-20T17:49:59.908Z,68318.50
2023-04-20T17:52:28.266Z,68326.03
2023-04-20T17:54:55.619Z,68313.97
2023-04-20T17:57:22.820Z,68316.44
2023-04-20T17:59:50.669Z,68310.38
2023-04-20T18:02:18.238Z,68302.63
2023-04-20T18:04:46.038Z,68302.06
2023-04-20T18:07:15.615Z,68285.25
2023-04-20T18:09:43.548Z,68286.22
2023-04-20T18:12:11.508Z,68286.94
2023-04-20T18:14:40.584Z,68279.56
2023-04-20T18:17:08.384Z,68272.22
2023-04-20T18:19:38.418Z,68245.59
2023-04-20T18:22:05.783Z,68262.78
2023-04-20T18:24:33.114Z,68262.41
2023-04-20T18:27:01.042Z,68274.50
2023-04-20T18:29:29.092Z,68265.03
2023-04-20T18:32:01.750Z,68265.41
2023-04-20T18:34:34.700Z,68261.84
2023-04-20T18:37:01.871Z,68262.78
2023-04-20T18:39:30.007Z,68268.44
2023-04-20T18:41:59.986Z,68262.97
2023-04-20T18:44:28.389Z,68256.00
2023-04-20T18:47:04.875Z,68255.41
2023-04-20T18:49:32.277Z,68255.78
2023-04-20T18:51:59.683Z,68251.81
2023-04-20T18:54:26.919Z,68245.59
2023-04-20T18:56:54.835Z,68242.75
2023-04-20T18:59:22.023Z,68248.81
2023-04-20T19:01:52.601Z,68238.22
2023-04-20T19:04:20.640Z,68246.16
2023-04-20T19:06:48.399Z,68239.94
2023-04-20T19:09:18.599Z,68235.78
2023-04-20T19:11:45.883Z,68241.81
2023-04-20T19:14:15.932Z,68207.09
2023-04-20T19:16:43.278Z,68217.47
2023-04-20T19:19:10.910Z,68222.38
2023-04-20T19:21:40.402Z,68215.56
2023-04-20T19:24:07.916Z,68220.13
2023-04-20T19:26:37.813Z,68228.41
2023-04-20T19:29:05.953Z,68218.59
2023-04-20T19:31:37.855Z,68215.56
2023-04-20T19:34:07.861Z,68219.91
2023-04-20T19:36:35.264Z,68220.13
2023-04-20T19:39:03.636Z,68217.09
2023-04-20T19:41:31.179Z,68198.00
2023-04-20T19:43:59.428Z,68200.84
2023-04-20T19:46:27.180Z,68209.53
2023-04-20T19:48:57.531Z,68201.03
2023-04-20T19:51:28.417Z,68192.94
2023-04-20T19:53:56.545Z,68186.13
2023-04-20T19:56:27.462Z,68158.41
2023-04-20T19:58:54.749Z,68148.78
2023-04-20T20:01:21.892Z,68170.06
2023-04-20T20:03:49.844Z,68149.88
2023-04-20T20:06:22.958Z,68153.28
2023-04-20T20:08:50.676Z,68123.34
2023-04-20T20:11:17.925Z,68157.06
2023-04-20T20:13:45.337Z,68167.44
2023-04-20T20:16:12.527Z,68149.88
2023-04-20T20:18:39.946Z,68144.03
2023-04-20T20:21:07.463Z,68124.03
2023-04-20T20:23:34.603Z,68118.56
2023-04-20T20:26:02.663Z,68123.84
2023-04-20T20:28:29.867Z,68130.63
2023-04-20T20:30:57.288Z,68126.31
2023-04-20T20:33:24.480Z,68122.72
2023-04-20T20:35:52.563Z,68119.13
2023-04-20T20:38:21.006Z,68105.91
2023-04-20T20:40:50.552Z,68113.84
2023-04-20T20:43:19.450Z,68110.63
2023-04-20T20:45:47.400Z,68108.00
2023-04-20T20:48:14.552Z,68109.88
2023-04-20T20:50:41.740Z,68106.09
2023-04-20T20:53:08.989Z,68089.13
2023-04-20T20:55:36.148Z,68098.16
2023-04-20T20:58:03.359Z,68103.84
2023-04-20T21:00:30.851Z,68124.63
2023-04-20T21:02:59.018Z,68128.38
2023-04-20T21:05:26.538Z,68131.78
2023-04-20T21:07:54.295Z,68143.84
2023-04-20T21:10:21.416Z,68143.88
2023-04-20T21:12:48.623Z,68143.88
2023-04-20T21:15:16.133Z,68145.38
2023-04-20T21:17:43.412Z,68141.22
2023-04-20T21:20:11.535Z,68150.09
2023-04-20T21:22:38.735Z,68140.25
2023-04-20T21:25:06.556Z,68136.50
2023-04-20T21:27:33.709Z,68138.22
2023-04-20T21:30:00.870Z,68143.09
2023-04-20T21:32:28.282Z,68133.09
2023-04-20T21:34:55.525Z,68148.94
2023-04-20T21:37:22.675Z,68159.88
2023-04-20T21:39:51.150Z,68149.88
2023-04-20T21:42:18.294Z,68144.81
2023-04-20T21:44:48.248Z,68145.19
2023-04-20T21:47:15.485Z,68148.56
2023-04-20T21:49:46.448Z,68158.38
2023-04-20T21:52:14.571Z,68154.06
2023-04-20T21:54:42.030Z,68150.66
2023-04-20T21:57:13.828Z,68148.19
2023-04-20T21:59:40.996Z,68144.81
2023-04-20T22:02:08.310Z,68137.63
2023-04-20T22:04:35.846Z,68160.09
2023-04-20T22:07:04.175Z,68154.44
2023-04-20T22:09:31.363Z,68155.16
2023-04-20T22:12:04.530Z,68157.81
2023-04-20T22:14:31.804Z,68169.72
2023-04-20T22:16:59.521Z,68162.72
2023-04-20T22:19:29.407Z,68169.13
2023-04-20T22:21:58.713Z,68145.56
2023-04-20T22:24:25.958Z,68160.44
2023-04-20T22:26:53.031Z,68147.25
2023-04-20T22:29:20.946Z,68155.56
2023-04-20T22:31:48.310Z,68152.34
2023-04-20T22:34:15.987Z,68149.16
2023-04-20T22:36:43.118Z,68154.63
2023-04-20T22:39:10.258Z,68149.72
2023-04-20T22:41:37.534Z,68158.94
2023-04-20T22:44:04.759Z,68167.25
2023-04-20T22:46:32.017Z,68158.38
2023-04-20T22:48:59.228Z,68152.53
2023-04-20T22:51:29.033Z,68164.22
2023-04-20T22:53:56.177Z,68155.00
2023-04-20T22:56:24.597Z,68147.06
2023-04-20T22:58:51.755Z,68145.75
2023-04-20T23:01:19.053Z,68149.31
2023-04-20T23:03:46.361Z,68124.44
2023-04-20T23:06:18.770Z,68155.56
2023-04-20T23:08:46.840Z,68154.22
2023-04-20T23:11:16.435Z,68147.44
2023-04-20T23:13:44.366Z,68154.81
2023-04-20T23:16:11.919Z,68153.28
2023-04-20T23:18:39.088Z,68157.25
2023-04-20T23:21:06.414Z,68126.72
2023-04-20T23:23:33.477Z,68150.47
2023-04-20T23:26:00.762Z,68155.16
2023-04-20T23:28:27.878Z,68152.91
2023-04-20T23:30:55.009Z,68119.38
2023-04-20T23:33:22.595Z,68137.25
2023-04-20T23:35:49.864Z,68135.34
2023-04-20T23:38:18.133Z,68133.84
2023-04-20T23:40:45.449Z,68124.41
2023-04-20T23:43:12.538Z,68132.53
2023-04-20T23:45:39.655Z,68113.44
2023-04-20T23:48:07.344Z,68119.66
2023-04-20T23:50:36.937Z,68117.41
2023-04-20T23:53:05.693Z,68112.72
2023-04-20T23:55:32.915Z,68111.03
2023-04-20T23:58:00.373Z,68104.03
